sensor_id;sensor_type;location;lat;lon;timestamp;pressure;altitude;pressure_sealevel;temperature;humidity
59545;BME280;45368;55.002;-1.592;2022-12-18T00:00:14;101076.65;;;0.80;63.43
59545;BME280;45368;55.002;-1.592;2022-12-18T00:02:41;101081.54;;;0.47;64.54
59545;BME280;45368;55.002;-1.592;2022-12-18T00:05:24;101075.88;;;2.03;60.55
59545;BME280;45368;55.002;-1.592;2022-12-18T00:07:51;101070.21;;;2.74;57.99
59545;BME280;45368;55.002;-1.592;2022-12-18T00:10:18;101069.68;;;3.20;56.76
59545;BME280;45368;55.002;-1.592;2022-12-18T00:12:45;101072.23;;;3.24;56.10
59545;BME280;45368;55.002;-1.592;2022-12-18T00:15:12;101077.38;;;3.53;55.40
59545;BME280;45368;55.002;-1.592;2022-12-18T00:17:40;101090.70;;;0.33;63.42
59545;BME280;45368;55.002;-1.592;2022-12-18T00:20:09;101096.30;;;0.97;63.38
59545;BME280;45368;55.002;-1.592;2022-12-18T00:22:35;101098.48;;;1.27;63.23
59545;BME280;45368;55.002;-1.592;2022-12-18T00:25:04;101101.02;;;1.49;63.25
59545;BME280;45368;55.002;-1.592;2022-12-18T00:27:31;101099.76;;;1.86;62.38
59545;BME280;45368;55.002;-1.592;2022-12-18T00:29:58;101099.37;;;1.93;61.27
59545;BME280;45368;55.002;-1.592;2022-12-18T00:32:25;101100.52;;;1.79;62.09
59545;BME280;45368;55.002;-1.592;2022-12-18T00:34:53;101097.33;;;2.04;60.99
59545;BME280;45368;55.002;-1.592;2022-12-18T00:37:21;101093.65;;;1.76;61.92
59545;BME280;45368;55.002;-1.592;2022-12-18T00:39:48;101097.81;;;1.04;63.59
59545;BME280;45368;55.002;-1.592;2022-12-18T00:42:16;101096.24;;;0.73;65.11
59545;BME280;45368;55.002;-1.592;2022-12-18T00:44:43;101089.52;;;1.27;63.84
59545;BME280;45368;55.002;-1.592;2022-12-18T00:47:11;101078.79;;;2.33;60.92
59545;BME280;45368;55.002;-1.592;2022-12-18T00:49:39;101080.21;;;2.15;60.11
59545;BME280;45368;55.002;-1.592;2022-12-18T00:52:06;101083.64;;;1.31;62.58
59545;BME280;45368;55.002;-1.592;2022-12-18T00:54:32;101091.73;;;0.75;63.79
59545;BME280;45368;55.002;-1.592;2022-12-18T00:57:00;101090.78;;;0.55;64.42
59545;BME280;45368;55.002;-1.592;2022-12-18T00:59:27;101088.43;;;1.13;63.26
59545;BME280;45368;55.002;-1.592;2022-12-18T01:01:54;101086.32;;;1.87;61.86
59545;BME280;45368;55.002;-1.592;2022-12-18T01:04:22;101088.62;;;2.47;59.40
59545;BME280;45368;55.002;-1.592;2022-12-18T01:06:49;101094.81;;;1.18;62.01
59545;BME280;45368;55.002;-1.592;2022-12-18T01:09:17;101094.87;;;1.07;63.34
59545;BME280;45368;55.002;-1.592;2022-12-18T01:11:44;101103.69;;;-0.32;65.91
59545;BME280;45368;55.002;-1.592;2022-12-18T01:14:12;101101.49;;;0.29;65.98
59545;BME280;45368;55.002;-1.592;2022-12-18T01:16:39;101093.99;;;0.36;66.54
59545;BME280;45368;55.002;-1.592;2022-12-18T01:19:06;101089.47;;;0.99;64.69
59545;BME280;45368;55.002;-1.592;2022-12-18T01:21:34;101085.21;;;1.81;61.79
59545;BME280;45368;55.002;-1.592;2022-12-18T01:24:02;101076.50;;;1.63;60.11
59545;BME280;45368;55.002;-1.592;2022-12-18T01:26:29;101077.12;;;0.74;63.96
59545;BME280;45368;55.002;-1.592;2022-12-18T01:28:56;101080.24;;;0.48;64.26
59545;BME280;45368;55.002;-1.592;2022-12-18T01:31:26;101078.99;;;0.83;63.97
59545;BME280;45368;55.002;-1.592;2022-12-18T01:33:54;101082.97;;;-0.32;67.31
59545;BME280;45368;55.002;-1.592;2022-12-18T01:36:24;101086.26;;;0.53;65.69
59545;BME280;45368;55.002;-1.592;2022-12-18T01:38:52;101085.68;;;1.06;65.05
59545;BME280;45368;55.002;-1.592;2022-12-18T01:41:21;101089.67;;;0.46;66.49
59545;BME280;45368;55.002;-1.592;2022-12-18T01:43:52;101088.32;;;0.34;65.75
59545;BME280;45368;55.002;-1.592;2022-12-18T01:46:21;101084.30;;;0.11;67.04
59545;BME280;45368;55.002;-1.592;2022-12-18T01:48:51;101082.53;;;0.24;65.82
59545;BME280;45368;55.002;-1.592;2022-12-18T01:51:20;101080.52;;;0.46;66.69
59545;BME280;45368;55.002;-1.592;2022-12-18T01:53:47;101075.67;;;0.93;65.04
59545;BME280;45368;55.002;-1.592;2022-12-18T01:56:16;101073.65;;;1.22;64.85
59545;BME280;45368;55.002;-1.592;2022-12-18T01:58:51;101080.20;;;1.38;64.59
59545;BME280;45368;55.002;-1.592;2022-12-18T02:01:21;101080.21;;;1.51;63.41
59545;BME280;45368;55.002;-1.592;2022-12-18T02:03:50;101081.20;;;1.33;62.61
59545;BME280;45368;55.002;-1.592;2022-12-18T02:06:21;101085.14;;;1.71;61.43
59545;BME280;45368;55.002;-1.592;2022-12-18T02:09:01;101087.17;;;2.30;61.13
59545;BME280;45368;55.002;-1.592;2022-12-18T02:11:39;101088.65;;;0.51;65.69
59545;BME280;45368;55.002;-1.592;2022-12-18T02:14:18;101085.84;;;0.33;66.45
59545;BME280;45368;55.002;-1.592;2022-12-18T02:16:54;101087.60;;;2.02;62.42
59545;BME280;45368;55.002;-1.592;2022-12-18T02:19:39;101083.95;;;2.71;59.93
59545;BME280;45368;55.002;-1.592;2022-12-18T02:22:19;101083.13;;;3.06;58.69
59545;BME280;45368;55.002;-1.592;2022-12-18T02:24:59;101081.20;;;2.71;58.68
59545;BME280;45368;55.002;-1.592;2022-12-18T02:27:27;101084.48;;;2.55;59.30
59545;BME280;45368;55.002;-1.592;2022-12-18T02:29:57;101085.02;;;2.27;59.52
59545;BME280;45368;55.002;-1.592;2022-12-18T02:32:28;101087.28;;;2.31;60.98
59545;BME280;45368;55.002;-1.592;2022-12-18T02:34:57;101088.40;;;1.56;62.46
59545;BME280;45368;55.002;-1.592;2022-12-18T02:37:27;101084.94;;;2.09;61.70
59545;BME280;45368;55.002;-1.592;2022-12-18T02:39:57;101097.10;;;0.86;63.90
59545;BME280;45368;55.002;-1.592;2022-12-18T02:42:26;101097.06;;;2.13;61.63
59545;BME280;45368;55.002;-1.592;2022-12-18T02:44:54;101101.04;;;1.82;62.33
59545;BME280;45368;55.002;-1.592;2022-12-18T02:47:23;101099.27;;;2.04;62.39
59545;BME280;45368;55.002;-1.592;2022-12-18T02:49:58;101099.45;;;1.18;64.39
59545;BME280;45368;55.002;-1.592;2022-12-18T02:52:41;101099.18;;;2.08;61.81
59545;BME280;45368;55.002;-1.592;2022-12-18T02:55:20;101102.42;;;2.59;60.81
59545;BME280;45368;55.002;-1.592;2022-12-18T02:57:54;101097.84;;;1.94;61.87
59545;BME280;45368;55.002;-1.592;2022-12-18T03:00:24;101093.10;;;2.43;61.70
59545;BME280;45368;55.002;-1.592;2022-12-18T03:02:57;101083.37;;;2.86;60.29
59545;BME280;45368;55.002;-1.592;2022-12-18T03:05:31;101086.92;;;2.30;61.69
59545;BME280;45368;55.002;-1.592;2022-12-18T03:08:05;101082.58;;;1.40;64.28
59545;BME280;45368;55.002;-1.592;2022-12-18T03:10:38;101084.84;;;2.16;61.85
59545;BME280;45368;55.002;-1.592;2022-12-18T03:13:09;101087.17;;;2.15;61.03
59545;BME280;45368;55.002;-1.592;2022-12-18T03:15:44;101088.67;;;1.85;61.51
59545;BME280;45368;55.002;-1.592;2022-12-18T03:18:15;101085.57;;;2.09;61.44
59545;BME280;45368;55.002;-1.592;2022-12-18T03:20:46;101084.55;;;2.59;60.38
59545;BME280;45368;55.002;-1.592;2022-12-18T03:23:16;101083.81;;;3.11;58.09
59545;BME280;45368;55.002;-1.592;2022-12-18T03:25:46;101077.92;;;3.92;56.74
59545;BME280;45368;55.002;-1.592;2022-12-18T03:28:15;101074.42;;;4.14;55.80
59545;BME280;45368;55.002;-1.592;2022-12-18T03:30:45;101076.64;;;3.37;57.04
59545;BME280;45368;55.002;-1.592;2022-12-18T03:33:18;101080.54;;;2.71;59.08
59545;BME280;45368;55.002;-1.592;2022-12-18T03:35:47;101076.69;;;1.88;61.53
59545;BME280;45368;55.002;-1.592;2022-12-18T03:38:14;101070.78;;;1.40;63.57
59545;BME280;45368;55.002;-1.592;2022-12-18T03:40:49;101077.58;;;0.11;68.53
59545;BME280;45368;55.002;-1.592;2022-12-18T03:43:23;101085.07;;;0.28;68.39
59545;BME280;45368;55.002;-1.592;2022-12-18T03:46:02;101086.92;;;0.07;70.03
59545;BME280;45368;55.002;-1.592;2022-12-18T03:48:32;101084.79;;;0.81;67.41
59545;BME280;45368;55.002;-1.592;2022-12-18T03:51:08;101074.81;;;1.48;65.89
59545;BME280;45368;55.002;-1.592;2022-12-18T03:53:45;101073.97;;;1.24;64.69
59545;BME280;45368;55.002;-1.592;2022-12-18T03:56:16;101073.19;;;0.65;66.14
59545;BME280;45368;55.002;-1.592;2022-12-18T03:58:46;101074.65;;;0.84;68.25
59545;BME280;45368;55.002;-1.592;2022-12-18T04:01:16;101082.42;;;0.13;70.39
59545;BME280;45368;55.002;-1.592;2022-12-18T04:03:46;101074.27;;;1.53;65.78
59545;BME280;45368;55.002;-1.592;2022-12-18T04:06:16;101075.65;;;1.06;65.56
59545;BME280;45368;55.002;-1.592;2022-12-18T04:08:45;101066.92;;;1.38;65.26
59545;BME280;45368;55.002;-1.592;2022-12-18T04:11:13;101057.90;;;1.51;64.61
59545;BME280;45368;55.002;-1.592;2022-12-18T04:13:42;101054.71;;;1.37;64.69
59545;BME280;45368;55.002;-1.592;2022-12-18T04:16:09;101046.30;;;1.69;63.14
59545;BME280;45368;55.002;-1.592;2022-12-18T04:18:37;101040.76;;;1.93;63.43
59545;BME280;45368;55.002;-1.592;2022-12-18T04:21:04;101046.63;;;0.68;66.74
59545;BME280;45368;55.002;-1.592;2022-12-18T04:23:31;101047.28;;;-0.40;70.73
59545;BME280;45368;55.002;-1.592;2022-12-18T04:25:59;101034.29;;;-0.47;71.43
59545;BME280;45368;55.002;-1.592;2022-12-18T04:28:26;101028.64;;;-0.63;72.38
59545;BME280;45368;55.002;-1.592;2022-12-18T04:30:54;101027.14;;;-0.03;71.34
59545;BME280;45368;55.002;-1.592;2022-12-18T04:33:20;101034.63;;;-0.26;71.36
59545;BME280;45368;55.002;-1.592;2022-12-18T04:35:48;101031.49;;;0.12;69.33
59545;BME280;45368;55.002;-1.592;2022-12-18T04:38:15;101028.72;;;1.37;66.22
59545;BME280;45368;55.002;-1.592;2022-12-18T04:40:44;101024.47;;;0.48;67.95
59545;BME280;45368;55.002;-1.592;2022-12-18T04:43:11;101023.82;;;0.22;68.66
59545;BME280;45368;55.002;-1.592;2022-12-18T04:45:38;101027.59;;;1.24;67.45
59545;BME280;45368;55.002;-1.592;2022-12-18T04:48:06;101021.49;;;0.65;67.08
59545;BME280;45368;55.002;-1.592;2022-12-18T04:50:32;101017.41;;;1.10;66.87
59545;BME280;45368;55.002;-1.592;2022-12-18T04:53:00;101012.24;;;0.72;67.13
59545;BME280;45368;55.002;-1.592;2022-12-18T04:55:27;101005.50;;;2.13;63.85
59545;BME280;45368;55.002;-1.592;2022-12-18T04:57:55;100998.17;;;2.47;61.60
59545;BME280;45368;55.002;-1.592;2022-12-18T05:00:22;101002.17;;;2.16;61.59
59545;BME280;45368;55.002;-1.592;2022-12-18T05:02:50;100996.14;;;2.29;61.21
59545;BME280;45368;55.002;-1.592;2022-12-18T05:05:18;100988.61;;;2.32;60.91
59545;BME280;45368;55.002;-1.592;2022-12-18T05:07:45;100984.16;;;1.79;61.59
59545;BME280;45368;55.002;-1.592;2022-12-18T05:10:12;100977.93;;;2.25;61.31
59545;BME280;45368;55.002;-1.592;2022-12-18T05:12:39;100978.37;;;1.83;61.80
59545;BME280;45368;55.002;-1.592;2022-12-18T05:15:08;100975.95;;;2.05;61.52
59545;BME280;45368;55.002;-1.592;2022-12-18T05:17:35;100989.41;;;0.69;64.92
59545;BME280;45368;55.002;-1.592;2022-12-18T05:20:03;100987.83;;;0.03;68.83
59545;BME280;45368;55.002;-1.592;2022-12-18T05:22:30;100983.58;;;-0.50;70.65
59545;BME280;45368;55.002;-1.592;2022-12-18T05:24:58;100987.10;;;-0.36;71.56
59545;BME280;45368;55.002;-1.592;2022-12-18T05:27:25;100981.79;;;-0.72;72.40
59545;BME280;45368;55.002;-1.592;2022-12-18T05:29:52;100979.88;;;-1.12;74.07
59545;BME280;45368;55.002;-1.592;2022-12-18T05:32:19;100988.58;;;-1.28;75.41
59545;BME280;45368;55.002;-1.592;2022-12-18T05:34:46;100981.03;;;-1.08;74.01
59545;BME280;45368;55.002;-1.592;2022-12-18T05:37:14;100982.32;;;-1.48;74.71
59545;BME280;45368;55.002;-1.592;2022-12-18T05:39:41;100966.40;;;-1.00;73.70
59545;BME280;45368;55.002;-1.592;2022-12-18T05:42:09;100961.74;;;-1.19;73.93
59545;BME280;45368;55.002;-1.592;2022-12-18T05:44:37;100964.59;;;-1.35;74.31
59545;BME280;45368;55.002;-1.592;2022-12-18T05:47:05;100966.62;;;-1.17;73.66
59545;BME280;45368;55.002;-1.592;2022-12-18T05:49:32;100962.36;;;-0.62;72.58
59545;BME280;45368;55.002;-1.592;2022-12-18T05:52:00;100960.52;;;-0.54;71.85
59545;BME280;45368;55.002;-1.592;2022-12-18T05:54:27;100960.13;;;-0.75;72.67
59545;BME280;45368;55.002;-1.592;2022-12-18T05:56:55;100965.20;;;-0.91;72.06
59545;BME280;45368;55.002;-1.592;2022-12-18T05:59:22;100971.56;;;-0.91;72.48
59545;BME280;45368;55.002;-1.592;2022-12-18T06:01:50;100979.72;;;-0.59;71.07
59545;BME280;45368;55.002;-1.592;2022-12-18T06:04:17;100980.52;;;-1.02;72.16
59545;BME280;45368;55.002;-1.592;2022-12-18T06:06:44;100973.85;;;-1.05;72.76
59545;BME280;45368;55.002;-1.592;2022-12-18T06:09:11;100963.45;;;-0.66;71.43
59545;BME280;45368;55.002;-1.592;2022-12-18T06:11:39;100970.71;;;-0.96;72.26
59545;BME280;45368;55.002;-1.592;2022-12-18T06:14:07;100992.37;;;-0.98;73.06
59545;BME280;45368;55.002;-1.592;2022-12-18T06:16:34;101005.89;;;-1.54;74.56
59545;BME280;45368;55.002;-1.592;2022-12-18T06:19:04;101005.80;;;-1.93;74.94
59545;BME280;45368;55.002;-1.592;2022-12-18T06:21:32;101001.28;;;-1.88;75.24
59545;BME280;45368;55.002;-1.592;2022-12-18T06:23:59;100999.99;;;-1.67;75.73
59545;BME280;45368;55.002;-1.592;2022-12-18T06:26:26;100980.54;;;-2.15;76.10
59545;BME280;45368;55.002;-1.592;2022-12-18T06:28:54;100958.42;;;-2.07;75.48
59545;BME280;45368;55.002;-1.592;2022-12-18T06:31:22;100966.49;;;-2.37;76.90
59545;BME280;45368;55.002;-1.592;2022-12-18T06:33:49;100966.65;;;-1.66;74.72
59545;BME280;45368;55.002;-1.592;2022-12-18T06:36:16;100956.96;;;-1.93;74.88
59545;BME280;45368;55.002;-1.592;2022-12-18T06:38:44;100963.75;;;-1.80;74.51
59545;BME280;45368;55.002;-1.592;2022-12-18T06:41:13;100964.43;;;-2.00;75.55
59545;BME280;45368;55.002;-1.592;2022-12-18T06:43:41;100958.22;;;-1.50;73.91
59545;BME280;45368;55.002;-1.592;2022-12-18T06:46:09;100960.44;;;-1.37;72.82
59545;BME280;45368;55.002;-1.592;2022-12-18T06:48:37;100971.25;;;-1.32;72.79
59545;BME280;45368;55.002;-1.592;2022-12-18T06:51:05;100988.18;;;-1.46;72.45
59545;BME280;45368;55.002;-1.592;2022-12-18T06:53:33;100992.17;;;-1.29;71.87
59545;BME280;45368;55.002;-1.592;2022-12-18T06:56:01;101006.06;;;-2.22;74.13
59545;BME280;45368;55.002;-1.592;2022-12-18T06:58:28;101003.16;;;-1.79;72.72
59545;BME280;45368;55.002;-1.592;2022-12-18T07:01:00;100999.38;;;-2.12;73.22
59545;BME280;45368;55.002;-1.592;2022-12-18T07:03:28;100995.54;;;-1.94;73.35
59545;BME280;45368;55.002;-1.592;2022-12-18T07:05:55;100998.35;;;-1.53;71.67
59545;BME280;45368;55.002;-1.592;2022-12-18T07:08:22;100997.82;;;-2.22;72.87
59545;BME280;45368;55.002;-1.592;2022-12-18T07:10:49;101000.87;;;-2.28;73.36
59545;BME280;45368;55.002;-1.592;2022-12-18T07:13:17;100996.95;;;-2.21;74.14
59545;BME280;45368;55.002;-1.592;2022-12-18T07:15:44;101001.97;;;-2.56;75.03
59545;BME280;45368;55.002;-1.592;2022-12-18T07:18:11;100997.59;;;-2.62;75.28
59545;BME280;45368;55.002;-1.592;2022-12-18T07:20:39;100995.72;;;-2.47;74.07
59545;BME280;45368;55.002;-1.592;2022-12-18T07:23:06;100989.75;;;-2.87;75.74
59545;BME280;45368;55.002;-1.592;2022-12-18T07:25:34;100980.42;;;-2.92;76.17
59545;BME280;45368;55.002;-1.592;2022-12-18T07:28:01;100980.88;;;-2.82;75.97
59545;BME280;45368;55.002;-1.592;2022-12-18T07:30:28;100966.40;;;-2.90;76.10
59545;BME280;45368;55.002;-1.592;2022-12-18T07:32:56;100965.06;;;-2.86;75.88
59545;BME280;45368;55.002;-1.592;2022-12-18T07:35:23;100961.25;;;-2.70;74.60
59545;BME280;45368;55.002;-1.592;2022-12-18T07:37:50;100962.09;;;-2.54;73.93
59545;BME280;45368;55.002;-1.592;2022-12-18T07:40:17;100951.88;;;-1.96;72.35
59545;BME280;45368;55.002;-1.592;2022-12-18T07:42:44;100942.92;;;-2.78;73.16
59545;BME280;45368;55.002;-1.592;2022-12-18T07:45:11;100929.48;;;-2.16;71.60
59545;BME280;45368;55.002;-1.592;2022-12-18T07:47:38;100920.40;;;-2.61;73.12
59545;BME280;45368;55.002;-1.592;2022-12-18T07:50:06;100900.19;;;-2.21;71.40
59545;BME280;45368;55.002;-1.592;2022-12-18T07:52:34;100907.52;;;-2.71;72.09
59545;BME280;45368;55.002;-1.592;2022-12-18T07:55:02;100916.00;;;-2.48;72.28
59545;BME280;45368;55.002;-1.592;2022-12-18T07:57:29;100926.60;;;-2.52;73.53
59545;BME280;45368;55.002;-1.592;2022-12-18T07:59:57;100921.60;;;-2.24;72.61
59545;BME280;45368;55.002;-1.592;2022-12-18T08:02:24;100919.23;;;-2.42;71.88
59545;BME280;45368;55.002;-1.592;2022-12-18T08:04:51;100924.60;;;-2.04;70.76
59545;BME280;45368;55.002;-1.592;2022-12-18T08:07:19;100935.04;;;-2.13;71.40
59545;BME280;45368;55.002;-1.592;2022-12-18T08:09:46;100940.47;;;-2.78;71.57
59545;BME280;45368;55.002;-1.592;2022-12-18T08:12:13;100938.78;;;-2.22;71.62
59545;BME280;45368;55.002;-1.592;2022-12-18T08:14:41;100939.98;;;-2.53;72.63
59545;BME280;45368;55.002;-1.592;2022-12-18T08:17:08;100940.22;;;-2.67;72.84
59545;BME280;45368;55.002;-1.592;2022-12-18T08:19:35;100936.21;;;-2.90;73.67
59545;BME280;45368;55.002;-1.592;2022-12-18T08:22:02;100933.45;;;-2.68;73.24
59545;BME280;45368;55.002;-1.592;2022-12-18T08:24:29;100930.76;;;-3.21;74.48
59545;BME280;45368;55.002;-1.592;2022-12-18T08:26:57;100920.59;;;-2.48;72.95
59545;BME280;45368;55.002;-1.592;2022-12-18T08:29:24;100923.33;;;-2.69;73.18
59545;BME280;45368;55.002;-1.592;2022-12-18T08:31:52;100926.55;;;-3.27;76.16
59545;BME280;45368;55.002;-1.592;2022-12-18T08:34:20;100919.16;;;-2.82;74.43
59545;BME280;45368;55.002;-1.592;2022-12-18T08:36:47;100911.17;;;-2.99;74.98
59545;BME280;45368;55.002;-1.592;2022-12-18T08:39:15;100920.36;;;-3.72;76.38
59545;BME280;45368;55.002;-1.592;2022-12-18T08:41:41;100921.57;;;-3.00;75.33
59545;BME280;45368;55.002;-1.592;2022-12-18T08:44:09;100917.63;;;-3.43;76.66
59545;BME280;45368;55.002;-1.592;2022-12-18T08:46:38;100918.29;;;-2.80;74.90
59545;BME280;45368;55.002;-1.592;2022-12-18T08:49:06;100918.71;;;-3.34;75.86
59545;BME280;45368;55.002;-1.592;2022-12-18T08:51:34;100918.96;;;-3.51;77.57
59545;BME280;45368;55.002;-1.592;2022-12-18T08:54:03;100928.50;;;-3.34;76.57
59545;BME280;45368;55.002;-1.592;2022-12-18T08:56:30;100930.85;;;-3.64;77.24
59545;BME280;45368;55.002;-1.592;2022-12-18T08:58:58;100932.89;;;-2.81;76.14
59545;BME280;45368;55.002;-1.592;2022-12-18T09:01:25;100936.89;;;-2.97;75.05
59545;BME280;45368;55.002;-1.592;2022-12-18T09:03:53;100935.84;;;-2.58;73.61
59545;BME280;45368;55.002;-1.592;2022-12-18T09:06:21;100938.80;;;-3.41;75.97
59545;BME280;45368;55.002;-1.592;2022-12-18T09:08:49;100942.22;;;-3.01;75.06
59545;BME280;45368;55.002;-1.592;2022-12-18T09:11:20;100932.53;;;-2.21;73.21
59545;BME280;45368;55.002;-1.592;2022-12-18T09:13:49;100932.05;;;-3.13;75.06
59545;BME280;45368;55.002;-1.592;2022-12-18T09:16:17;100929.42;;;-3.01;75.08
59545;BME280;45368;55.002;-1.592;2022-12-18T09:18:45;100926.66;;;-3.24;76.54
59545;BME280;45368;55.002;-1.592;2022-12-18T09:21:14;100923.99;;;-3.24;77.51
59545;BME280;45368;55.002;-1.592;2022-12-18T09:23:42;100912.39;;;-2.83;75.27
59545;BME280;45368;55.002;-1.592;2022-12-18T09:26:09;100901.21;;;-2.83;76.53
59545;BME280;45368;55.002;-1.592;2022-12-18T09:28:37;100888.71;;;-2.75;75.70
59545;BME280;45368;55.002;-1.592;2022-12-18T09:31:06;100891.86;;;-2.98;75.99
59545;BME280;45368;55.002;-1.592;2022-12-18T09:33:34;100897.65;;;-3.46;77.79
59545;BME280;45368;55.002;-1.592;2022-12-18T09:36:05;100902.90;;;-3.36;78.57
59545;BME280;45368;55.002;-1.592;2022-12-18T09:38:33;100898.06;;;-3.40;77.98
59545;BME280;45368;55.002;-1.592;2022-12-18T09:41:05;100898.29;;;-3.01;76.09
59545;BME280;45368;55.002;-1.592;2022-12-18T09:43:47;100890.47;;;-3.05;77.01
59545;BME280;45368;55.002;-1.592;2022-12-18T09:46:19;100889.53;;;-2.94;76.09
59545;BME280;45368;55.002;-1.592;2022-12-18T09:48:53;100884.73;;;-2.61;74.11
59545;BME280;45368;55.002;-1.592;2022-12-18T09:51:26;100874.09;;;-2.49;74.82
59545;BME280;45368;55.002;-1.592;2022-12-18T09:53:58;100879.47;;;-2.80;75.12
59545;BME280;45368;55.002;-1.592;2022-12-18T09:56:31;100881.70;;;-2.42;74.09
59545;BME280;45368;55.002;-1.592;2022-12-18T09:59:03;100874.93;;;-2.74;74.61
59545;BME280;45368;55.002;-1.592;2022-12-18T10:01:32;100866.75;;;-2.47;74.38
59545;BME280;45368;55.002;-1.592;2022-12-18T10:03:59;100859.21;;;-2.01;73.01
59545;BME280;45368;55.002;-1.592;2022-12-18T10:06:32;100856.83;;;-2.01;72.70
59545;BME280;45368;55.002;-1.592;2022-12-18T10:09:07;100861.25;;;-1.95;72.42
59545;BME280;45368;55.002;-1.592;2022-12-18T10:11:43;100861.27;;;-2.69;75.14
59545;BME280;45368;55.002;-1.592;2022-12-18T10:14:18;100855.34;;;-2.66;74.72
59545;BME280;45368;55.002;-1.592;2022-12-18T10:16:56;100850.17;;;-2.68;75.81
59545;BME280;45368;55.002;-1.592;2022-12-18T10:19:35;100837.44;;;-1.84;73.04
59545;BME280;45368;55.002;-1.592;2022-12-18T10:22:14;100826.32;;;-2.03;72.38
59545;BME280;45368;55.002;-1.592;2022-12-18T10:24:50;100818.42;;;-1.93;72.28
59545;BME280;45368;55.002;-1.592;2022-12-18T10:27:25;100810.35;;;-2.12;72.54
59545;BME280;45368;55.002;-1.592;2022-12-18T10:29:53;100803.75;;;-1.79;71.87
59545;BME280;45368;55.002;-1.592;2022-12-18T10:32:24;100798.78;;;-2.42;73.77
59545;BME280;45368;55.002;-1.592;2022-12-18T10:34:54;100791.03;;;-2.26;73.06
59545;BME280;45368;55.002;-1.592;2022-12-18T10:37:24;100783.94;;;-2.13;73.57
59545;BME280;45368;55.002;-1.592;2022-12-18T10:40:08;100787.47;;;-2.04;72.49
59545;BME280;45368;55.002;-1.592;2022-12-18T10:42:36;100790.18;;;-1.57;71.30
59545;BME280;45368;55.002;-1.592;2022-12-18T10:45:08;100784.94;;;-1.38;70.43
59545;BME280;45368;55.002;-1.592;2022-12-18T10:47:37;100783.59;;;-1.70;69.92
59545;BME280;45368;55.002;-1.592;2022-12-18T10:50:24;100781.99;;;-0.62;67.99
59545;BME280;45368;55.002;-1.592;2022-12-18T10:52:55;100782.29;;;-0.54;66.54
59545;BME280;45368;55.002;-1.592;2022-12-18T10:55:22;100781.31;;;-1.02;67.69
59545;BME280;45368;55.002;-1.592;2022-12-18T10:57:51;100767.36;;;-0.26;67.01
59545;BME280;45368;55.002;-1.592;2022-12-18T11:00:24;100764.93;;;-1.19;68.83
59545;BME280;45368;55.002;-1.592;2022-12-18T11:02:51;100755.70;;;-1.08;68.13
59545;BME280;45368;55.002;-1.592;2022-12-18T11:05:29;100755.45;;;-1.21;68.05
59545;BME280;45368;55.002;-1.592;2022-12-18T11:07:58;100755.60;;;-0.71;67.37
59545;BME280;45368;55.002;-1.592;2022-12-18T11:10:29;100752.85;;;-0.82;67.02
59545;BME280;45368;55.002;-1.592;2022-12-18T11:13:10;100744.09;;;-0.21;66.17
59545;BME280;45368;55.002;-1.592;2022-12-18T11:15:40;100746.95;;;-0.17;65.19
59545;BME280;45368;55.002;-1.592;2022-12-18T11:18:16;100735.73;;;-0.26;63.82
59545;BME280;45368;55.002;-1.592;2022-12-18T11:20:51;100731.84;;;0.28;63.78
59545;BME280;45368;55.002;-1.592;2022-12-18T11:23:19;100722.96;;;-0.23;63.84
59545;BME280;45368;55.002;-1.592;2022-12-18T11:25:53;100727.47;;;-1.06;66.61
59545;BME280;45368;55.002;-1.592;2022-12-18T11:28:35;100712.86;;;-0.17;64.61
59545;BME280;45368;55.002;-1.592;2022-12-18T11:31:21;100702.66;;;-1.16;66.70
59545;BME280;45368;55.002;-1.592;2022-12-18T11:33:55;100692.75;;;0.33;64.24
59545;BME280;45368;55.002;-1.592;2022-12-18T11:36:26;100698.67;;;-0.69;65.24
59545;BME280;45368;55.002;-1.592;2022-12-18T11:38:59;100696.20;;;-0.61;64.95
59545;BME280;45368;55.002;-1.592;2022-12-18T11:41:34;100695.47;;;0.15;62.26
59545;BME280;45368;55.002;-1.592;2022-12-18T11:44:06;100688.08;;;-0.08;62.80
59545;BME280;45368;55.002;-1.592;2022-12-18T11:46:38;100678.18;;;0.57;61.99
59545;BME280;45368;55.002;-1.592;2022-12-18T11:49:14;100676.39;;;-0.01;61.67
59545;BME280;45368;55.002;-1.592;2022-12-18T11:51:49;100667.93;;;0.47;60.55
59545;BME280;45368;55.002;-1.592;2022-12-18T11:54:18;100656.65;;;0.76;60.35
59545;BME280;45368;55.002;-1.592;2022-12-18T11:56:48;100645.22;;;0.65;59.67
59545;BME280;45368;55.002;-1.592;2022-12-18T11:59:24;100632.40;;;0.47;60.27
59545;BME280;45368;55.002;-1.592;2022-12-18T12:02:04;100623.93;;;0.90;60.74
59545;BME280;45368;55.002;-1.592;2022-12-18T12:05:27;100616.03;;;0.63;60.55
59545;BME280;45368;55.002;-1.592;2022-12-18T12:08:05;100601.26;;;0.18;60.97
59545;BME280;45368;55.002;-1.592;2022-12-18T12:10:43;100591.42;;;0.36;60.35
59545;BME280;45368;55.002;-1.592;2022-12-18T12:13:26;100586.35;;;-0.10;61.27
59545;BME280;45368;55.002;-1.592;2022-12-18T12:16:07;100576.43;;;0.31;61.66
59545;BME280;45368;55.002;-1.592;2022-12-18T12:18:49;100574.24;;;-0.04;61.61
59545;BME280;45368;55.002;-1.592;2022-12-18T12:21:23;100570.35;;;0.51;59.91
59545;BME280;45368;55.002;-1.592;2022-12-18T12:23:59;100566.31;;;0.28;60.20
59545;BME280;45368;55.002;-1.592;2022-12-18T12:26:36;100560.61;;;0.33;60.31
59545;BME280;45368;55.002;-1.592;2022-12-18T12:29:19;100544.03;;;0.05;60.58
59545;BME280;45368;55.002;-1.592;2022-12-18T12:32:02;100531.10;;;1.24;58.01
59545;BME280;45368;55.002;-1.592;2022-12-18T12:34:36;100534.23;;;-0.01;60.36
59545;BME280;45368;55.002;-1.592;2022-12-18T12:37:19;100522.54;;;0.67;58.47
59545;BME280;45368;55.002;-1.592;2022-12-18T12:39:51;100518.29;;;0.29;60.16
59545;BME280;45368;55.002;-1.592;2022-12-18T12:42:26;100507.88;;;-0.12;60.53
59545;BME280;45368;55.002;-1.592;2022-12-18T12:44:58;100505.16;;;-0.08;60.64
59545;BME280;45368;55.002;-1.592;2022-12-18T12:47:32;100506.57;;;-0.79;62.47
59545;BME280;45368;55.002;-1.592;2022-12-18T12:50:03;100499.33;;;-0.26;61.91
59545;BME280;45368;55.002;-1.592;2022-12-18T12:52:37;100494.18;;;-0.58;61.67
59545;BME280;45368;55.002;-1.592;2022-12-18T12:55:14;100486.23;;;-0.44;61.10
59545;BME280;45368;55.002;-1.592;2022-12-18T12:57:46;100482.05;;;-0.22;59.81
59545;BME280;45368;55.002;-1.592;2022-12-18T13:00:17;100473.80;;;-0.30;60.63